Time;durP1;ratioP1;P1;durP2;ratioP2;P2;SDS_P1;SDS_P2;PMS_P1;PMS_P2;Temp;Humidity;BMP_temperature;BMP_pressure;BME280_temperature;BME280_humidity;BME280_pressure;Samples;Min_cycle;Max_cycle;Signal;HPM_P1;HPM_P2
2023/10/05 00:04:30;;;;;;;38.90;24.52;;;;;;;23.48;nan;98157.81;4863216;29;20049;-63
2023/10/05 00:06:59;;;;;;;40.85;27.02;;;;;;;23.50;nan;98162.97;4871053;29;20057;-64
2023/10/05 00:09:29;;;;;;;41.13;25.85;;;;;;;23.49;nan;98162.16;4866213;29;20049;-63
2023/10/05 00:12:01;;;;;;;42.60;24.98;;;;;;;23.33;nan;98159.84;4864648;29;20048;-63
2023/10/05 00:14:31;;;;;;;41.08;25.67;;;;;;;23.26;nan;98152.13;4867872;29;20045;-63
2023/10/05 00:17:00;;;;;;;36.63;25.80;;;;;;;23.08;nan;98153.66;4874981;29;20056;-64
2023/10/05 00:19:33;;;;;;;36.40;24.35;;;;;;;23.16;nan;98155.72;4875111;29;20091;-63
2023/10/05 00:22:02;;;;;;;;;;;;;;;23.52;nan;98158.84;4875525;29;20180;-63
2023/10/05 00:24:35;;;;;;;35.60;23.80;;;;;;;23.53;nan;98162.38;4873597;29;20276;-63
2023/10/05 00:27:12;;;;;;;35.20;24.25;;;;;;;23.63;nan;98159.53;4871912;29;20045;-63
2023/10/05 00:29:53;;;;;;;35.88;25.75;;;;;;;23.56;nan;98167.19;4875407;29;20136;-64
2023/10/05 00:32:25;;;;;;;40.28;25.52;;;;;;;23.26;nan;98160.22;4878928;29;20518;-63
2023/10/05 00:35:14;;;;;;;38.00;24.37;;;;;;;23.44;nan;98175.72;4873612;29;20061;-63
2023/10/05 00:37:45;;;;;;;39.80;24.88;;;;;;;23.35;nan;98171.19;4872798;29;20602;-63
2023/10/05 00:43:21;;;;;;;43.33;26.20;;;;;;;23.00;nan;98177.78;4877845;29;20060;-64
2023/10/05 00:45:51;;;;;;;48.63;26.77;;;;;;;23.00;nan;98184.00;4874880;29;20477;-63
2023/10/05 00:49:12;;;;;;;42.17;25.98;;;;;;;23.12;nan;98186.31;4872958;29;20169;-64
2023/10/05 00:51:21;;;;;;;37.85;27.63;;;;;;;23.11;nan;98180.09;4870524;29;20140;-63
2023/10/05 00:53:53;;;;;;;37.88;26.15;;;;;;;23.19;nan;98181.38;4872614;29;20140;-64
2023/10/05 00:56:23;;;;;;;43.83;26.15;;;;;;;23.36;nan;98183.63;4872298;29;20053;-63
2023/10/05 00:59:04;;;;;;;37.72;25.17;;;;;;;23.45;nan;98190.84;4873597;29;20131;-63
2023/10/05 01:01:59;;;;;;;46.45;26.65;;;;;;;23.54;nan;98197.25;4872951;29;20068;-63
2023/10/05 01:05:15;;;;;;;38.40;26.00;;;;;;;23.37;nan;98196.84;4854148;29;20053;-64
2023/10/05 01:07:18;;;;;;;42.25;24.95;;;;;;;23.22;nan;98203.22;4854828;29;20045;-62
2023/10/05 01:10:15;;;;;;;36.97;23.98;;;;;;;23.20;nan;98196.50;4855315;29;20738;-63
2023/10/05 01:12:47;;;;;;;42.92;25.40;;;;;;;23.16;nan;98201.66;4866071;29;20049;-63
2023/10/05 01:15:30;;;;;;;42.10;27.17;;;;;;;23.20;nan;98207.28;4873146;29;20057;-63
2023/10/05 01:18:00;;;;;;;39.28;25.48;;;;;;;23.44;nan;98212.75;4871510;29;20387;-63
2023/10/05 01:20:31;;;;;;;37.97;25.02;;;;;;;23.55;nan;98209.63;4871697;29;20061;-63
2023/10/05 01:23:04;;;;;;;41.55;25.13;;;;;;;23.71;nan;98218.38;4867667;29;20127;-63
2023/10/05 01:25:36;;;;;;;;;;;;;;;23.47;nan;98220.28;4873990;29;20056;-63
2023/10/05 01:28:07;;;;;;;37.30;24.20;;;;;;;23.53;nan;98225.34;4874599;29;19938;-63
2023/10/05 01:30:38;;;;;;;34.90;24.92;;;;;;;23.41;nan;98229.53;4872606;29;20541;-63
2023/10/05 01:33:08;;;;;;;36.08;24.02;;;;;;;23.49;nan;98228.91;4874146;29;20045;-63
2023/10/05 01:35:41;;;;;;;32.00;23.27;;;;;;;23.60;nan;98227.69;4887588;29;20056;-63
2023/10/05 01:38:11;;;;;;;;;;;;;;;23.61;nan;98232.81;4873876;29;20155;-63
2023/10/05 01:40:47;;;;;;;35.47;23.92;;;;;;;23.55;nan;98246.69;4887321;29;20260;-63
2023/10/05 01:43:18;;;;;;;41.58;25.77;;;;;;;23.48;nan;98243.53;4873452;29;20052;-63
2023/10/05 01:45:48;;;;;;;34.60;24.58;;;;;;;23.64;nan;98245.75;4872470;29;20060;-63
2023/10/05 01:48:25;;;;;;;38.55;25.35;;;;;;;23.82;nan;98249.59;4871362;29;20052;-63
2023/10/05 01:50:56;;;;;;;38.13;26.80;;;;;;;24.05;nan;98254.19;4871956;29;20049;-64
2023/10/05 01:53:26;;;;;;;44.95;27.20;;;;;;;24.10;nan;98251.41;4871435;29;20049;-63
2023/10/05 01:55:57;;;;;;;43.00;28.00;;;;;;;24.14;nan;98257.84;4871884;29;20538;-63
2023/10/05 01:58:39;;;;;;;47.45;28.48;;;;;;;24.36;nan;98259.22;4871965;29;20076;-63
2023/10/05 02:01:10;;;;;;;48.65;28.88;;;;;;;24.40;nan;98261.03;4871598;29;20060;-63
2023/10/05 02:03:40;;;;;;;50.10;29.80;;;;;;;24.22;nan;98271.84;4871429;29;20164;-63
2023/10/05 02:06:15;;;;;;;49.97;31.42;;;;;;;24.34;nan;98275.72;4871604;29;20064;-63
2023/10/05 02:08:45;;;;;;;49.65;30.58;;;;;;;24.37;nan;98272.47;4855584;29;20045;-63
2023/10/05 02:11:27;;;;;;;50.78;31.08;;;;;;;24.56;nan;98273.25;4872655;29;20063;-63
2023/10/05 02:14:03;;;;;;;45.95;30.10;;;;;;;24.65;nan;98278.81;4868235;29;20841;-64
2023/10/05 02:16:34;;;;;;;53.60;31.00;;;;;;;24.73;nan;98283.59;4872646;29;20913;-62
2023/10/05 02:19:04;;;;;;;46.28;30.52;;;;;;;24.87;nan;98289.09;4871428;29;20133;-63
2023/10/05 02:21:37;;;;;;;46.50;30.05;;;;;;;25.04;nan;98292.88;4872943;29;20060;-63
2023/10/05 02:24:17;;;;;;;50.95;31.13;;;;;;;24.93;nan;98294.13;4870393;29;20159;-63
2023/10/05 02:29:31;;;;;;;48.90;31.93;;;;;;;25.42;nan;98298.16;4865391;29;20544;-63
2023/10/05 02:34:41;;;;;;;67.13;35.30;;;;;;;25.51;nan;98299.09;4870575;29;20493;-63
2023/10/05 02:37:12;;;;;;;59.58;36.38;;;;;;;25.73;nan;98303.88;4870458;29;20081;-64
2023/10/05 02:39:41;;;;;;;53.05;36.38;;;;;;;25.87;nan;98300.06;4871905;29;20064;-63
2023/10/05 02:42:15;;;;;;;64.28;37.00;;;;;;;25.90;nan;98306.78;4871550;29;20053;-63
2023/10/05 02:44:45;;;;;;;79.90;39.47;;;;;;;25.98;nan;98311.50;4869500;29;20063;-63
2023/10/05 02:47:16;;;;;;;66.70;37.83;;;;;;;26.16;nan;98317.91;4869990;29;20171;-63
2023/10/05 02:49:47;;;;;;;66.68;40.40;;;;;;;26.08;nan;98321.34;4871408;29;20052;-63
2023/10/05 02:52:17;;;;;;;66.78;39.55;;;;;;;26.38;nan;98315.31;4870664;29;20064;-64
2023/10/05 02:54:49;;;;;;;64.30;39.90;;;;;;;26.45;nan;98323.88;4871265;29;20581;-63
2023/10/05 02:57:22;;;;;;;61.42;39.38;;;;;;;26.63;nan;98332.97;4855935;29;20057;-63
2023/10/05 02:59:51;;;;;;;68.72;39.45;;;;;;;26.75;nan;98342.19;4871069;29;20221;-63
2023/10/05 03:02:23;;;;;;;66.25;38.72;;;;;;;26.80;nan;98331.22;4871696;29;20076;-64
2023/10/05 03:04:58;;;;;;;65.47;36.35;;;;;;;26.89;nan;98335.94;4866098;29;20057;-63
2023/10/05 03:07:30;;;;;;;63.78;36.55;;;;;;;26.91;nan;98333.75;4868011;29;20081;-63
2023/10/05 03:10:00;;;;;;;69.20;37.90;;;;;;;26.96;nan;98326.25;4871985;29;20100;-63
2023/10/05 03:12:37;;;;;;;73.57;37.85;;;;;;;27.11;nan;98333.25;4870742;29;20080;-63
2023/10/05 03:15:08;;;;;;;59.65;35.33;;;;;;;27.21;nan;98333.81;4869755;29;20063;-63
2023/10/05 03:17:45;;;;;;;66.13;36.67;;;;;;;27.27;nan;98338.00;4869237;29;20057;-63
2023/10/05 03:20:18;;;;;;;53.08;34.38;;;;;;;27.37;nan;98345.09;4870802;29;20101;-63
2023/10/05 03:22:47;;;;;;;67.72;36.53;;;;;;;27.43;nan;98341.16;4867051;29;20079;-63
2023/10/05 03:25:19;;;;;;;72.10;39.45;;;;;;;27.41;nan;98339.84;4875061;29;20060;-64
2023/10/05 03:27:49;;;;;;;68.70;36.72;;;;;;;27.48;nan;98343.78;4853952;29;20419;-64
2023/10/05 03:30:23;;;;;;;68.88;38.70;;;;;;;27.51;nan;98345.06;4871315;29;20053;-63
2023/10/05 03:32:53;;;;;;;68.53;37.88;;;;;;;27.65;nan;98353.94;4868727;29;20068;-64
2023/10/05 03:35:26;;;;;;;53.45;35.58;;;;;;;27.68;nan;98353.31;4872090;29;20053;-64
2023/10/05 03:37:57;;;;;;;78.60;39.50;;;;;;;27.78;nan;98349.53;4867974;29;20113;-64
2023/10/05 03:40:35;;;;;;;65.00;37.72;;;;;;;27.92;nan;98356.47;4885001;29;20545;-63
2023/10/05 03:43:05;;;;;;;72.57;37.55;;;;;;;27.95;nan;98355.84;4871458;29;20071;-64
2023/10/05 03:45:40;;;;;;;58.17;37.23;;;;;;;28.16;nan;98356.09;4870549;29;20049;-63
2023/10/05 03:48:10;;;;;;;74.78;39.95;;;;;;;28.16;nan;98358.81;4869616;29;20128;-63
2023/10/05 03:50:39;;;;;;;67.85;36.40;;;;;;;28.36;nan;98366.44;4870242;29;20089;-64
2023/10/05 03:53:15;;;;;;;68.35;37.72;;;;;;;28.35;nan;98364.03;4869745;29;20057;-64
2023/10/05 03:55:47;;;;;;;72.20;36.30;;;;;;;28.33;nan;98366.25;4870121;29;20176;-63
2023/10/05 03:58:16;;;;;;;66.93;36.85;;;;;;;28.50;nan;98378.00;4870633;29;20084;-64
2023/10/05 04:00:49;;;;;;;64.45;36.03;;;;;;;28.78;nan;98380.47;4868586;29;20052;-64
2023/10/05 04:03:23;;;;;;;67.53;36.30;;;;;;;28.83;nan;98377.59;4884158;29;20045;-63
2023/10/05 04:05:52;;;;;;;71.30;35.13;;;;;;;28.95;nan;98378.56;4870848;29;20647;-64
2023/10/05 04:08:23;;;;;;;65.75;31.05;;;;;;;29.16;nan;98380.66;4869986;29;20057;-63
2023/10/05 04:10:54;;;;;;;54.97;31.55;;;;;;;29.41;nan;98398.97;4870992;29;20057;-64
2023/10/05 04:13:25;;;;;;;57.75;28.00;;;;;;;29.87;nan;98390.06;4866275;29;20056;-64
2023/10/05 04:15:55;;;;;;;54.38;28.33;;;;;;;30.08;nan;98401.09;4871359;29;20064;-62
2023/10/05 04:18:26;;;;;;;55.90;27.25;;;;;;;30.62;nan;98391.22;4871038;29;20069;-63
2023/10/05 04:20:58;;;;;;;55.40;28.25;;;;;;;30.74;nan;98396.75;4871338;29;20478;-63
2023/10/05 04:23:28;;;;;;;54.60;29.30;;;;;;;31.07;nan;98394.16;4870768;29;20069;-64
2023/10/05 04:25:57;;;;;;;50.30;27.70;;;;;;;31.45;nan;98388.47;4868236;29;20140;-63
2023/10/05 04:28:40;;;;;;;60.30;31.92;;;;;;;31.71;nan;98391.00;4869919;29;20049;-63
2023/10/05 04:31:13;;;;;;;59.17;29.60;;;;;;;32.02;nan;98394.81;4869285;29;20117;-63
2023/10/05 04:33:43;;;;;;;;;;;;;;;32.20;nan;98400.94;4870020;29;20064;-63
2023/10/05 04:36:13;;;;;;;43.47;22.50;;;;;;;32.37;nan;98408.13;4869619;29;19938;-63
2023/10/05 04:38:43;;;;;;;37.15;21.52;;;;;;;32.40;nan;98401.94;4870916;29;20497;-63
2023/10/05 04:41:13;;;;;;;37.50;21.13;;;;;;;32.63;nan;98405.84;4870211;29;20148;-64
2023/10/05 04:43:43;;;;;;;59.75;22.60;;;;;;;32.47;nan;98413.97;4864395;29;21638;-63
2023/10/05 04:46:14;;;;;;;33.00;20.40;;;;;;;32.87;nan;98396.81;4857394;29;20149;-63
2023/10/05 04:48:55;;;;;;;47.03;22.75;;;;;;;33.00;nan;98398.38;4876708;29;20565;-63
2023/10/05 04:51:30;;;;;;;45.63;23.48;;;;;;;33.11;nan;98390.44;4871772;29;20068;-63
2023/10/05 04:54:00;;;;;;;39.70;21.67;;;;;;;33.41;nan;98387.03;4873219;29;20071;-63
2023/10/05 04:56:40;;;;;;;45.03;22.38;;;;;;;33.53;nan;98391.69;4879091;29;20545;-63
2023/10/05 05:07:13;;;;;;;48.72;26.80;;;;;;;34.08;nan;98390.78;4878620;29;20059;-63
2023/10/05 05:09:43;;;;;;;54.03;26.85;;;;;;;34.06;nan;98384.88;4875599;29;20053;-62
2023/10/05 05:15:58;;;;;;;53.63;27.42;;;;;;;34.44;nan;98388.94;4839960;29;20121;-62
2023/10/05 05:18:28;;;;;;;43.78;26.95;;;;;;;34.44;nan;98389.75;4868628;29;20049;-62
2023/10/05 05:20:57;;;;;;;63.00;28.38;;;;;;;34.47;nan;98388.25;4863886;29;20512;-63
2023/10/05 05:23:27;;;;;;;50.17;27.52;;;;;;;34.32;nan;98375.28;4865597;29;20060;-62
2023/10/05 05:25:56;;;;;;;51.85;27.23;;;;;;;34.36;nan;98376.97;4866070;29;20064;-62
2023/10/05 05:28:26;;;;;;;51.83;24.30;;;;;;;33.95;nan;98370.03;4867538;29;20045;-63
2023/10/05 05:30:56;;;;;;;57.28;31.65;;;;;;;33.58;nan;98369.47;4870931;29;20055;-63
2023/10/05 05:33:25;;;;;;;53.58;24.75;;;;;;;33.96;nan;98370.84;4871650;29;20061;-62
2023/10/05 05:35:54;;;;;;;47.45;24.02;;;;;;;34.21;nan;98372.31;4869742;29;20060;-62
2023/10/05 05:38:24;;;;;;;47.35;21.23;;;;;;;34.01;nan;98373.31;4861046;29;20049;-62
2023/10/05 05:40:53;;;;;;;38.75;16.83;;;;;;;34.51;nan;98370.66;4871349;29;20136;-62
2023/10/05 05:43:23;;;;;;;26.67;14.63;;;;;;;34.41;nan;98373.97;4874844;29;20057;-62
2023/10/05 05:45:52;;;;;;;23.85;13.07;;;;;;;34.63;nan;98372.50;4863534;29;20057;-62
2023/10/05 05:48:21;;;;;;;24.73;12.43;;;;;;;34.54;nan;98371.88;4870128;29;20067;-62
2023/10/05 05:50:53;;;;;;;26.42;11.20;;;;;;;34.16;nan;98369.78;4873506;29;20049;-62
2023/10/05 05:53:22;;;;;;;22.70;10.25;;;;;;;33.64;nan;98364.47;4874176;29;20067;-62
2023/10/05 05:55:55;;;;;;;29.10;10.38;;;;;;;33.97;nan;98366.94;4872691;29;20053;-62
2023/10/05 05:58:25;;;;;;;27.17;10.52;;;;;;;34.18;nan;98367.50;4869290;29;20048;-61
2023/10/05 06:00:57;;;;;;;25.33;9.30;;;;;;;34.00;nan;98360.72;4867859;29;20472;-61
2023/10/05 06:03:27;;;;;;;18.73;9.00;;;;;;;34.43;nan;98354.34;4868703;29;20647;-61
2023/10/05 06:05:57;;;;;;;17.75;8.60;;;;;;;34.30;nan;98358.38;4869920;29;20056;-61
2023/10/05 06:08:27;;;;;;;16.98;8.93;;;;;;;34.88;nan;98351.84;4874651;29;20806;-61
2023/10/05 06:10:56;;;;;;;25.98;9.70;;;;;;;34.74;nan;98337.00;4893399;29;20577;-65
2023/10/05 06:13:26;;;;;;;22.25;10.63;;;;;;;34.52;nan;98341.97;4869159;29;20056;-66
2023/10/05 06:15:58;;;;;;;25.83;10.55;;;;;;;34.45;nan;98341.81;4870930;29;20079;-67
2023/10/05 06:18:27;;;;;;;24.08;11.18;;;;;;;34.63;nan;98329.28;4874075;29;20109;-66
2023/10/05 06:20:57;;;;;;;30.90;10.75;;;;;;;34.71;nan;98325.53;4871569;29;20862;-67
2023/10/05 06:23:26;;;;;;;27.40;12.65;;;;;;;34.46;nan;98320.63;4873257;29;20406;-66
2023/10/05 06:25:57;;;;;;;29.83;11.88;;;;;;;34.39;nan;98324.00;4871288;29;20048;-66
2023/10/05 06:28:27;;;;;;;29.98;10.55;;;;;;;34.31;nan;98308.50;4874408;29;20053;-68
2023/10/05 06:30:57;;;;;;;24.58;10.05;;;;;;;34.42;nan;98308.75;4876762;29;20056;-67
2023/10/05 06:33:26;;;;;;;20.75;9.63;;;;;;;34.37;nan;98312.56;4878459;29;20874;-67
2023/10/05 06:35:55;;;;;;;21.95;9.68;;;;;;;34.24;nan;98302.84;4872388;29;20359;-67
2023/10/05 06:38:24;;;;;;;26.60;9.55;;;;;;;34.21;nan;98300.81;4877434;29;20053;-66
2023/10/05 06:40:54;;;;;;;20.70;11.25;;;;;;;34.39;nan;98295.72;4866148;29;20041;-68
2023/10/05 06:43:26;;;;;;;29.33;10.73;;;;;;;34.05;nan;98294.50;4864051;29;20053;-67
2023/10/05 06:46:08;;;;;;;23.33;11.30;;;;;;;34.09;nan;98287.94;4865011;29;20756;-67
2023/10/05 06:48:40;;;;;;;21.52;9.68;;;;;;;34.22;nan;98283.16;4868874;29;20053;-68
2023/10/05 06:51:09;;;;;;;26.15;10.00;;;;;;;34.06;nan;98279.59;4866741;29;20040;-67
2023/10/05 06:53:39;;;;;;;36.28;10.10;;;;;;;34.18;nan;98272.06;4871527;29;20087;-68
2023/10/05 06:56:08;;;;;;;22.48;9.90;;;;;;;34.05;nan;98275.25;4869442;29;20052;-68
2023/10/05 06:58:41;;;;;;;22.23;10.73;;;;;;;34.19;nan;98272.88;4867658;29;20049;-68
2023/10/05 07:01:10;;;;;;;27.02;10.32;;;;;;;34.30;nan;98260.16;4869300;29;20130;-68
2023/10/05 07:03:42;;;;;;;33.88;11.40;;;;;;;33.92;nan;98260.81;4869673;29;20060;-68
2023/10/05 07:06:13;;;;;;;21.42;10.95;;;;;;;34.28;nan;98259.72;4868523;29;20061;-68
2023/10/05 07:08:42;;;;;;;33.10;12.60;;;;;;;33.98;nan;98253.13;4869425;29;20056;-68
2023/10/05 07:11:12;;;;;;;35.28;12.15;;;;;;;33.94;nan;98242.03;4865371;29;20483;-68
2023/10/05 07:13:41;;;;;;;27.58;12.13;;;;;;;33.70;nan;98239.47;4866354;29;20094;-68
2023/10/05 07:16:10;;;;;;;26.92;12.13;;;;;;;33.87;nan;98232.81;4870334;29;20143;-68
2023/10/05 07:18:40;;;;;;;21.15;10.80;;;;;;;33.95;nan;98235.38;4871477;29;20067;-68
2023/10/05 07:21:09;;;;;;;18.60;9.68;;;;;;;33.88;nan;98232.47;4872857;29;20045;-68
2023/10/05 07:23:41;;;;;;;24.50;9.52;;;;;;;33.93;nan;98225.91;4871888;29;20057;-68
2023/10/05 07:26:11;;;;;;;23.30;9.98;;;;;;;33.69;nan;98226.91;4869710;29;20057;-68
2023/10/05 07:28:41;;;;;;;15.98;8.90;;;;;;;33.69;nan;98221.41;4869542;29;20578;-68
2023/10/05 07:31:10;;;;;;;19.05;9.43;;;;;;;33.68;nan;98220.59;4869570;29;20052;-68
2023/10/05 07:33:41;;;;;;;22.52;9.95;;;;;;;33.94;nan;98208.25;4872976;29;20061;-67
2023/10/05 07:36:13;;;;;;;18.58;10.90;;;;;;;34.06;nan;98210.88;4883784;29;20144;-68
2023/10/05 07:38:44;;;;;;;24.40;9.38;;;;;;;33.98;nan;98211.88;4870032;29;20064;-68
2023/10/05 07:41:13;;;;;;;21.48;9.23;;;;;;;33.87;nan;98206.13;4867704;29;20052;-68
2023/10/05 07:43:44;;;;;;;25.88;10.63;;;;;;;33.60;nan;98198.78;4866507;29;20087;-67
2023/10/05 07:46:18;;;;;;;22.15;10.13;;;;;;;33.53;nan;98196.66;4868694;29;20064;-68
2023/10/05 07:48:47;;;;;;;19.48;10.00;;;;;;;33.45;nan;98194.13;4870851;29;20067;-68
2023/10/05 07:51:17;;;;;;;20.08;10.98;;;;;;;33.28;nan;98193.28;4887805;29;20809;-68
2023/10/05 07:53:46;;;;;;;32.85;11.63;;;;;;;33.18;nan;98187.56;4871776;29;20049;-68
2023/10/05 07:56:18;;;;;;;27.10;9.63;;;;;;;33.31;nan;98180.81;4873682;29;20775;-68
2023/10/05 07:58:47;;;;;;;20.52;9.48;;;;;;;33.46;nan;98180.00;4870116;29;20072;-67
2023/10/05 08:01:18;;;;;;;26.77;10.52;;;;;;;33.42;nan;98174.44;4866511;29;21823;-68
2023/10/05 08:03:50;;;;;;;16.42;10.70;;;;;;;33.47;nan;98165.13;4865895;29;20065;-67
2023/10/05 08:06:20;;;;;;;21.67;9.20;;;;;;;33.35;nan;98166.03;4870716;29;20137;-67
2023/10/05 08:08:50;;;;;;;22.50;9.30;;;;;;;33.41;nan;98161.84;4868555;29;20060;-67
2023/10/05 08:11:20;;;;;;;24.25;8.90;;;;;;;33.36;nan;98164.09;4868028;29;20055;-69
2023/10/05 08:13:49;;;;;;;25.17;10.18;;;;;;;33.32;nan;98157.72;4867062;29;20568;-68
2023/10/05 08:16:18;;;;;;;30.73;12.80;;;;;;;33.42;nan;98154.41;4870342;29;20704;-69
2023/10/05 08:18:51;;;;;;;22.75;10.27;;;;;;;33.29;nan;98152.91;4870493;29;20053;-68
2023/10/05 08:21:21;;;;;;;16.52;7.70;;;;;;;33.39;nan;98149.63;4869759;29;20053;-69
2023/10/05 08:23:51;;;;;;;17.63;8.23;;;;;;;33.37;nan;98143.72;4868148;29;20063;-69
2023/10/05 08:26:21;;;;;;;16.05;8.30;;;;;;;33.36;nan;98142.13;4870331;29;20056;-68
2023/10/05 08:28:50;;;;;;;17.58;7.63;;;;;;;33.32;nan;98130.25;4873973;29;20053;-69
2023/10/05 08:31:23;;;;;;;22.42;7.85;;;;;;;33.37;nan;98132.75;4867815;29;20053;-68
2023/10/05 08:33:53;;;;;;;18.17;7.70;;;;;;;33.33;nan;98123.59;4871954;29;20109;-68
2023/10/05 08:36:23;;;;;;;25.35;8.23;;;;;;;33.32;nan;98120.06;4872846;29;20060;-68
2023/10/05 08:38:55;;;;;;;20.35;7.95;;;;;;;33.29;nan;98114.47;4873440;29;20067;-68
2023/10/05 08:41:37;;;;;;;14.57;7.43;;;;;;;33.35;nan;98116.59;4871734;29;20103;-69
2023/10/05 08:44:26;;;;;;;16.42;7.90;;;;;;;33.37;nan;98119.00;4866259;29;20052;-69
2023/10/05 08:46:58;;;;;;;20.27;7.32;;;;;;;33.33;nan;98115.34;4870963;29;20048;-68
2023/10/05 08:49:28;;;;;;;19.40;7.90;;;;;;;33.35;nan;98113.06;4877436;29;20509;-69
2023/10/05 08:51:59;;;;;;;20.15;7.03;;;;;;;33.26;nan;98105.03;4878221;29;20061;-68
2023/10/05 08:54:33;;;;;;;15.50;7.60;;;;;;;33.33;nan;98105.19;4880863;29;20051;-69
2023/10/05 08:57:09;;;;;;;21.60;8.20;;;;;;;33.32;nan;98094.56;4872487;29;20084;-68
2023/10/05 08:59:50;;;;;;;16.55;7.22;;;;;;;33.36;nan;98100.94;4880141;29;20060;-69
2023/10/05 09:02:21;;;;;;;18.90;7.75;;;;;;;33.31;nan;98096.50;4875792;29;20052;-69
2023/10/05 09:04:57;;;;;;;16.55;6.70;;;;;;;33.26;nan;98082.25;4880975;29;20463;-69
2023/10/05 09:07:37;;;;;;;18.70;6.97;;;;;;;33.19;nan;98082.09;4878305;29;20493;-69
2023/10/05 09:10:15;;;;;;;20.85;7.10;;;;;;;33.19;nan;98079.34;4880442;29;20049;-69
2023/10/05 09:12:47;;;;;;;16.80;7.03;;;;;;;33.14;nan;98077.69;4875119;29;20776;-68
2023/10/05 09:15:22;;;;;;;16.65;6.88;;;;;;;33.13;nan;98073.31;4879313;29;20104;-69
2023/10/05 09:17:57;;;;;;;15.88;5.97;;;;;;;33.16;nan;98067.13;4871751;29;20053;-69
2023/10/05 09:20:32;;;;;;;19.13;6.75;;;;;;;33.14;nan;98072.19;4874281;29;20049;-67
2023/10/05 09:23:05;;;;;;;15.20;6.95;;;;;;;33.16;nan;98071.81;4878490;29;20204;-67
2023/10/05 09:25:35;;;;;;;15.55;7.57;;;;;;;33.16;nan;98072.59;4874654;29;20530;-67
2023/10/05 09:28:15;;;;;;;22.83;7.88;;;;;;;33.18;nan;98069.53;4870589;29;20108;-68
2023/10/05 09:30:57;;;;;;;18.02;7.75;;;;;;;33.19;nan;98060.13;4873977;29;20500;-68
2023/10/05 09:33:33;;;;;;;16.38;7.35;;;;;;;33.19;nan;98062.88;4884038;29;20055;-68
2023/10/05 09:36:19;;;;;;;19.50;7.20;;;;;;;33.04;nan;98053.47;4870351;29;20049;-69
2023/10/05 09:38:54;;;;;;;18.67;7.35;;;;;;;33.07;nan;98051.94;4870006;29;20525;-68
2023/10/05 09:41:25;;;;;;;15.38;6.68;;;;;;;33.02;nan;98050.28;4870398;29;20619;-68
2023/10/05 09:44:01;;;;;;;25.15;8.20;;;;;;;33.01;nan;98045.16;4866225;29;20080;-68
2023/10/05 09:46:34;;;;;;;15.10;6.38;;;;;;;33.02;nan;98044.03;4872531;29;20567;-69
2023/10/05 09:49:05;;;;;;;22.67;6.55;;;;;;;32.98;nan;98044.72;4870171;29;20068;-68
2023/10/05 09:51:36;;;;;;;19.35;7.38;;;;;;;32.92;nan;98043.41;4872425;29;20045;-69
2023/10/05 09:54:10;;;;;;;12.82;7.13;;;;;;;32.91;nan;98041.81;4871830;29;20061;-69
2023/10/05 09:56:41;;;;;;;20.38;7.20;;;;;;;32.91;nan;98041.81;4873016;29;20063;-69
2023/10/05 09:59:18;;;;;;;12.57;6.75;;;;;;;32.93;nan;98034.00;4871241;29;20895;-69
2023/10/05 10:01:50;;;;;;;14.65;7.15;;;;;;;32.87;nan;98035.44;4870827;29;20052;-69
2023/10/05 10:04:36;;;;;;;18.55;6.78;;;;;;;32.85;nan;98032.25;4872241;29;20057;-68
2023/10/05 10:07:15;;;;;;;21.50;6.90;;;;;;;32.84;nan;98033.38;4861638;29;20343;-68
2023/10/05 10:09:53;;;;;;;17.42;7.85;;;;;;;32.77;nan;98027.72;4873576;29;20116;-68
2023/10/05 10:12:33;;;;;;;14.73;7.63;;;;;;;32.80;nan;98027.00;4869011;29;20137;-69
2023/10/05 10:15:24;;;;;;;14.85;7.18;;;;;;;32.79;nan;98027.38;4867703;29;20778;-69
2023/10/05 10:18:13;;;;;;;14.20;6.70;;;;;;;32.79;nan;98019.97;4851338;29;20140;-69
2023/10/05 10:20:56;;;;;;;16.58;6.32;;;;;;;32.76;nan;98019.84;4867391;29;20064;-69
2023/10/05 10:23:35;;;;;;;15.20;6.18;;;;;;;32.75;nan;98018.28;4870179;29;20049;-69
2023/10/05 10:26:20;;;;;;;13.80;6.10;;;;;;;32.74;nan;98020.22;4870142;29;20430;-69
2023/10/05 10:28:59;;;;;;;13.80;7.00;;;;;;;32.71;nan;98017.38;4859497;29;20415;-69
2023/10/05 10:31:42;;;;;;;12.32;6.45;;;;;;;32.63;nan;98010.91;4868058;29;20553;-69
2023/10/05 10:34:38;;;;;;;16.77;7.00;;;;;;;32.60;nan;98014.34;4871567;29;20572;-69
2023/10/05 10:37:10;;;;;;;15.63;6.97;;;;;;;32.59;nan;98014.69;4865880;29;20080;-68
2023/10/05 10:39:39;;;;;;;16.60;7.72;;;;;;;32.54;nan;98019.28;4865900;29;20053;-69
2023/10/05 10:42:12;;;;;;;16.77;7.70;;;;;;;32.50;nan;98010.19;4866620;29;20040;-69
2023/10/05 10:45:11;;;;;;;20.60;7.35;;;;;;;32.48;nan;98012.50;4872007;29;20121;-69
2023/10/05 10:47:36;;;;;;;18.83;7.53;;;;;;;32.44;nan;98010.81;4865960;29;20653;-69
2023/10/05 10:50:14;;;;;;;19.52;7.55;;;;;;;32.35;nan;98010.19;4867691;29;20472;-69
2023/10/05 10:52:44;;;;;;;15.88;7.22;;;;;;;32.29;nan;98015.13;4869006;29;20107;-69
2023/10/05 10:55:17;;;;;;;18.95;7.40;;;;;;;32.31;nan;98014.78;4867244;29;20052;-69
2023/10/05 10:57:53;;;;;;;19.70;7.32;;;;;;;32.30;nan;98010.44;4868505;29;20053;-69
2023/10/05 11:03:12;;;;;;;12.48;7.30;;;;;;;32.21;nan;97999.63;4874806;29;20494;-69
2023/10/05 11:05:47;;;;;;;15.00;7.65;;;;;;;32.16;nan;98008.09;4875052;29;20052;-69
2023/10/05 11:08:21;;;;;;;15.48;7.18;;;;;;;32.08;nan;98015.31;4868414;29;20815;-69
2023/10/05 11:11:15;;;;;;;18.17;7.05;;;;;;;32.04;nan;98006.19;4870574;29;20160;-62
2023/10/05 11:13:55;;;;;;;18.17;7.35;;;;;;;31.93;nan;98005.09;4870563;29;20053;-61
2023/10/05 11:16:35;;;;;;;17.17;6.63;;;;;;;31.89;nan;98004.22;4867223;29;20053;-62
2023/10/05 11:19:04;;;;;;;17.45;7.18;;;;;;;31.84;nan;97996.22;4871923;29;20481;-63
2023/10/05 11:21:49;;;;;;;13.70;6.97;;;;;;;31.80;nan;98000.81;4868558;29;20049;-62
2023/10/05 11:24:18;;;;;;;25.13;7.78;;;;;;;31.76;nan;97991.72;4867931;29;20049;-62
2023/10/05 11:29:47;;;;;;;19.38;7.95;;;;;;;31.67;nan;97996.53;4871052;29;20053;-61
2023/10/05 11:32:24;;;;;;;14.13;7.18;;;;;;;31.62;nan;97996.78;4867696;29;20045;-62
2023/10/05 11:35:16;;;;;;;17.67;7.35;;;;;;;31.56;nan;98003.63;4847914;29;20064;-62
2023/10/05 11:38:04;;;;;;;13.15;7.18;;;;;;;31.51;nan;98012.84;4863544;29;20541;-62
2023/10/05 11:40:47;;;;;;;27.58;8.07;;;;;;;31.45;nan;98000.56;4866482;29;20053;-62
2023/10/05 11:43:18;;;;;;;23.48;8.05;;;;;;;31.34;nan;98007.63;4856627;29;20136;-61
2023/10/05 11:48:55;;;;;;;20.80;6.95;;;;;;;31.14;nan;97997.66;4863907;29;20771;-62
2023/10/05 11:51:44;;;;;;;18.85;6.60;;;;;;;31.04;nan;98001.66;4870759;29;20136;-62
2023/10/05 11:54:15;;;;;;;18.65;6.78;;;;;;;31.01;nan;97996.88;4878599;29;20111;-69
2023/10/05 11:56:46;;;;;;;20.15;7.47;;;;;;;30.92;nan;97993.44;4853047;29;20060;-69
2023/10/05 11:59:28;;;;;;;15.40;7.03;;;;;;;30.86;nan;97993.97;4870598;29;20052;-69
2023/10/05 12:01:58;;;;;;;13.85;6.53;;;;;;;30.74;nan;97997.53;4873287;29;20136;-69
2023/10/05 12:04:28;;;;;;;23.23;7.28;;;;;;;30.63;nan;97999.09;4872953;29;20153;-69
2023/10/05 12:07:00;;;;;;;16.48;7.05;;;;;;;30.58;nan;97999.34;4871778;29;20059;-69
2023/10/05 12:09:34;;;;;;;18.95;7.25;;;;;;;30.38;nan;97987.31;4879720;29;20052;-68
2023/10/05 12:12:10;;;;;;;18.75;6.80;;;;;;;30.35;nan;97988.00;4879835;29;20087;-68
2023/10/05 12:14:41;;;;;;;14.57;7.00;;;;;;;30.25;nan;97991.16;4882391;29;20141;-69
2023/10/05 12:17:10;;;;;;;21.00;7.88;;;;;;;30.16;nan;97990.47;4875377;29;20045;-69
2023/10/05 12:19:39;;;;;;;18.08;7.78;;;;;;;30.08;nan;97999.53;4880056;29;20061;-68
2023/10/05 12:22:13;;;;;;;30.95;9.05;;;;;;;30.10;nan;97994.53;4877384;29;20075;-68
2023/10/05 12:24:43;;;;;;;20.08;7.45;;;;;;;30.02;nan;97996.22;4880876;29;20060;-67
2023/10/05 12:27:20;;;;;;;16.98;7.72;;;;;;;29.96;nan;97997.59;4868239;29;20083;-68
2023/10/05 12:29:50;;;;;;;21.35;8.20;;;;;;;29.80;nan;97989.16;4882208;29;20081;-67
2023/10/05 12:32:21;;;;;;;14.82;7.72;;;;;;;29.74;nan;97995.19;4870495;29;20037;-69
2023/10/05 12:34:51;;;;;;;20.55;8.50;;;;;;;29.61;nan;97985.34;4877784;29;20426;-69
2023/10/05 12:37:21;;;;;;;24.90;8.75;;;;;;;29.46;nan;97994.94;4880477;29;20052;-69
2023/10/05 12:39:50;;;;;;;29.05;8.60;;;;;;;29.33;nan;97990.53;4892260;29;20064;-69